createdAt,value
2018-09-24T00:00:21.727Z,67.26
2018-09-24T00:02:49.175Z,68.30
2018-09-24T00:05:16.607Z,67.26
2018-09-24T00:07:44.053Z,63.99
2018-09-24T00:10:11.471Z,64.92
2018-09-24T00:12:38.919Z,64.58
2018-09-24T00:15:06.366Z,64.73
2018-09-24T00:17:33.778Z,65.69
2018-09-24T00:20:01.239Z,64.77
2018-09-24T00:22:28.634Z,65.13
2018-09-24T00:24:56.115Z,65.18
2018-09-24T00:27:23.507Z,64.71
2018-09-24T00:29:50.951Z,63.84
2018-09-24T00:32:18.391Z,64.09
2018-09-24T00:34:45.809Z,64.80
2018-09-24T00:37:13.237Z,64.38
2018-09-24T00:39:40.627Z,63.86
2018-09-24T00:42:08.073Z,63.88
2018-09-24T00:44:35.497Z,63.16
2018-09-24T00:47:02.926Z,63.22
2018-09-24T00:49:30.415Z,62.71
2018-09-24T00:51:57.823Z,62.84
2018-09-24T00:54:25.400Z,63.12
2018-09-24T00:56:52.849Z,63.20
2018-09-24T00:59:20.247Z,63.11
2018-09-24T01:01:47.679Z,61.73
2018-09-24T01:04:15.144Z,61.17
2018-09-24T01:06:42.615Z,60.40
2018-09-24T01:09:10.175Z,60.50
2018-09-24T01:11:37.611Z,61.17
2018-09-24T01:14:05.072Z,61.31
2018-09-24T01:16:32.514Z,60.76
2018-09-24T01:19:00.015Z,60.53
2018-09-24T01:21:27.465Z,60.64
2018-09-24T01:23:54.894Z,60.35
2018-09-24T01:26:22.345Z,60.37
2018-09-24T01:28:49.746Z,60.09
2018-09-24T01:31:17.278Z,59.55
2018-09-24T01:33:44.666Z,59.54
2018-09-24T01:36:12.113Z,60.66
2018-09-24T01:38:39.562Z,60.45
2018-09-24T01:41:07.030Z,59.60
2018-09-24T01:43:34.474Z,58.68
2018-09-24T01:46:01.955Z,59.48
2018-09-24T01:48:29.382Z,59.23
2018-09-24T01:50:56.819Z,58.66
2018-09-24T01:53:24.284Z,57.89
2018-09-24T01:55:51.682Z,57.70
2018-09-24T01:58:19.117Z,57.83
2018-09-24T02:00:46.564Z,57.51
2018-09-24T02:03:14.000Z,59.20
2018-09-24T02:05:41.479Z,60.20
2018-09-24T02:08:08.884Z,60.29
2018-09-24T02:10:36.373Z,60.35
2018-09-24T02:13:03.762Z,60.71
2018-09-24T02:15:31.198Z,60.79
2018-09-24T02:17:58.634Z,61.30
2018-09-24T02:20:26.057Z,62.05
2018-09-24T02:22:53.498Z,61.96
2018-09-24T02:25:20.960Z,61.60
2018-09-24T02:27:48.537Z,60.99
2018-09-24T02:30:15.942Z,60.49
2018-09-24T02:32:43.396Z,59.86
2018-09-24T02:35:10.773Z,59.54
2018-09-24T02:37:38.212Z,60.53
2018-09-24T02:40:05.682Z,60.11
2018-09-24T02:42:33.053Z,59.91
2018-09-24T02:45:00.552Z,59.26
2018-09-24T02:47:27.954Z,59.10
2018-09-24T02:49:55.400Z,58.77
2018-09-24T02:52:22.814Z,58.44
2018-09-24T02:54:50.206Z,59.26
2018-09-24T02:57:17.649Z,59.46
2018-09-24T02:59:45.041Z,59.75
2018-09-24T03:02:12.482Z,60.20
2018-09-24T03:04:39.968Z,60.17
2018-09-24T03:07:07.451Z,60.09
2018-09-24T03:09:34.942Z,59.55
2018-09-24T03:12:02.353Z,59.35
2018-09-24T03:14:29.800Z,55.42
2018-09-24T03:16:57.202Z,54.14
2018-09-24T03:19:24.644Z,53.87
2018-09-24T03:21:52.075Z,53.88
2018-09-24T03:24:19.506Z,54.08
2018-09-24T03:26:46.970Z,53.55
2018-09-24T03:29:14.392Z,52.83
2018-09-24T03:31:42.525Z,52.64
2018-09-24T03:34:09.956Z,52.57
2018-09-24T03:36:37.475Z,52.02
2018-09-24T03:39:04.932Z,52.10
2018-09-24T03:41:32.437Z,51.87
2018-09-24T03:43:59.895Z,52.17
2018-09-24T03:46:27.289Z,52.21
2018-09-24T03:48:54.724Z,52.70
2018-09-24T03:51:22.153Z,52.42
2018-09-24T03:53:49.588Z,52.16
2018-09-24T03:56:17.241Z,52.17
2018-09-24T03:58:44.744Z,53.58
2018-09-24T04:01:12.162Z,52.87
2018-09-24T04:03:39.611Z,52.70
2018-09-24T04:06:12.556Z,52.10
2018-09-24T04:08:45.610Z,52.17
2018-09-24T04:11:18.740Z,51.98
2018-09-24T04:13:51.795Z,52.41
2018-09-24T04:16:24.936Z,51.84
2018-09-24T04:18:57.885Z,51.83
2018-09-24T04:21:31.095Z,51.65
2018-09-24T04:24:04.350Z,51.37
2018-09-24T04:26:37.581Z,51.48
2018-09-24T04:29:10.505Z,51.14
2018-09-24T04:31:43.650Z,51.20
2018-09-24T04:34:16.757Z,51.56
2018-09-24T04:36:49.827Z,51.80
2018-09-24T04:39:22.997Z,51.89
2018-09-24T04:41:56.095Z,52.47
2018-09-24T04:44:29.169Z,52.54
2018-09-24T04:47:02.334Z,52.24
2018-09-24T04:49:35.385Z,51.84
2018-09-24T04:52:08.505Z,51.44
2018-09-24T04:54:41.569Z,51.80
2018-09-24T04:57:14.643Z,52.08
2018-09-24T04:59:47.767Z,52.33
2018-09-24T05:02:20.996Z,52.71
2018-09-24T05:04:54.089Z,53.22
2018-09-24T05:07:27.374Z,53.60
2018-09-24T05:10:00.465Z,53.94
2018-09-24T05:12:33.460Z,54.64
2018-09-24T05:15:06.673Z,55.33
2018-09-24T05:17:39.846Z,55.32
2018-09-24T05:20:12.910Z,55.45
2018-09-24T05:22:45.931Z,55.64
2018-09-24T05:25:18.980Z,56.67
2018-09-24T05:27:52.157Z,57.62
2018-09-24T05:37:14.723Z,58.05
2018-09-24T05:39:47.771Z,57.69
2018-09-24T05:42:20.974Z,57.30
2018-09-24T05:44:54.169Z,56.57
2018-09-24T05:47:27.146Z,56.05
2018-09-24T05:50:00.229Z,55.54
2018-09-24T05:52:33.433Z,55.47
2018-09-24T05:55:06.435Z,55.10
2018-09-24T05:57:39.630Z,53.83
2018-09-24T06:00:12.868Z,52.56
2018-09-24T06:02:45.846Z,50.80
2018-09-24T06:05:18.831Z,49.71
2018-09-24T06:07:52.051Z,48.64
2018-09-24T06:10:25.227Z,46.87
2018-09-24T06:12:58.370Z,45.73
2018-09-24T06:15:31.342Z,44.79
2018-09-24T06:18:04.510Z,43.94
2018-09-24T06:20:37.660Z,43.45
2018-09-24T06:23:10.670Z,41.15
2018-09-24T06:25:43.726Z,39.61
2018-09-24T06:28:16.908Z,38.54
2018-09-24T06:30:49.660Z,37.57
2018-09-24T06:33:22.283Z,36.53
2018-09-24T06:35:55.218Z,36.18
2018-09-24T06:38:28.241Z,36.12
2018-09-24T06:41:00.735Z,36.13
2018-09-24T06:43:33.768Z,35.46
2018-09-24T06:46:06.550Z,35.44
2018-09-24T06:48:39.392Z,36.35
2018-09-24T06:51:12.230Z,36.87
2018-09-24T06:53:44.756Z,36.46
2018-09-24T06:56:17.459Z,36.61
2018-09-24T06:58:50.120Z,36.62
2018-09-24T07:01:22.958Z,36.06
2018-09-24T07:03:56.038Z,35.98
2018-09-24T07:06:29.319Z,35.91
2018-09-24T07:09:02.256Z,36.14
2018-09-24T07:11:35.360Z,35.64
2018-09-24T07:14:08.079Z,35.64
2018-09-24T07:16:40.834Z,35.47
2018-09-24T07:19:14.264Z,35.68
2018-09-24T07:21:47.220Z,35.92
2018-09-24T07:24:19.973Z,36.11
2018-09-24T07:26:52.410Z,36.36
2018-09-24T07:29:25.632Z,36.98
2018-09-24T07:31:58.719Z,37.04
2018-09-24T07:34:31.779Z,37.63
2018-09-24T07:37:04.959Z,38.29
2018-09-24T07:39:37.973Z,38.46
2018-09-24T07:42:11.073Z,38.57
2018-09-24T07:44:43.971Z,37.61
2018-09-24T07:47:16.953Z,37.41
2018-09-24T07:49:49.928Z,36.87
2018-09-24T07:54:58.770Z,36.66
2018-09-24T07:57:31.686Z,37.39
2018-09-24T08:00:04.780Z,37.24
2018-09-24T08:02:37.969Z,36.56
2018-09-24T08:05:11.138Z,36.83
2018-09-24T08:07:44.185Z,36.95
2018-09-24T08:10:17.381Z,37.28
2018-09-24T08:12:51.185Z,36.84
2018-09-24T08:15:23.978Z,36.35
2018-09-24T08:17:57.198Z,36.48
2018-09-24T08:20:30.284Z,36.53
2018-09-24T08:23:03.267Z,36.22
2018-09-24T08:25:36.347Z,36.14
2018-09-24T08:28:09.518Z,35.67
2018-09-24T08:30:42.435Z,35.74
2018-09-24T08:33:15.330Z,35.12
2018-09-24T08:35:48.610Z,34.62
2018-09-24T08:38:21.640Z,35.33
2018-09-24T08:40:54.752Z,35.25
2018-09-24T08:43:27.799Z,35.04
2018-09-24T08:46:00.956Z,35.08
2018-09-24T08:48:34.013Z,35.17
2018-09-24T08:51:07.146Z,35.60
2018-09-24T08:53:40.159Z,37.88
2018-09-24T08:56:13.324Z,39.49
2018-09-24T08:58:46.370Z,39.27
2018-09-24T09:01:19.394Z,38.03
2018-09-24T09:03:52.360Z,36.84
2018-09-24T09:06:25.560Z,37.30
2018-09-24T09:08:58.657Z,37.32
2018-09-24T09:11:31.744Z,37.30
2018-09-24T09:14:04.738Z,37.91
2018-09-24T09:16:37.623Z,39.54
2018-09-24T09:19:10.696Z,40.22
2018-09-24T09:21:43.787Z,42.14
2018-09-24T09:24:16.866Z,42.39
2018-09-24T09:26:49.978Z,42.22
2018-09-24T09:29:23.095Z,41.61
2018-09-24T09:31:56.171Z,40.89
2018-09-24T09:34:29.320Z,41.47
2018-09-24T09:37:02.467Z,42.73
2018-09-24T09:39:35.597Z,43.32
2018-09-24T09:42:08.685Z,42.56
2018-09-24T09:44:41.643Z,41.83
2018-09-24T09:47:15.664Z,41.84
2018-09-24T09:49:48.608Z,42.28
2018-09-24T09:52:22.525Z,42.72
2018-09-24T09:54:55.551Z,41.46
2018-09-24T09:57:28.553Z,41.57
2018-09-24T10:00:01.549Z,41.41
2018-09-24T10:02:34.660Z,41.63
2018-09-24T10:05:08.406Z,42.55
2018-09-24T10:07:41.599Z,42.40
2018-09-24T10:10:14.662Z,42.35
2018-09-24T10:12:47.750Z,42.65
2018-09-24T10:15:21.043Z,43.14
2018-09-24T10:17:54.282Z,42.34
2018-09-24T10:20:27.395Z,42.26
2018-09-24T10:23:00.549Z,40.68
2018-09-24T10:25:33.641Z,40.15
2018-09-24T10:28:07.440Z,40.87
2018-09-24T10:30:40.686Z,41.57
2018-09-24T10:33:13.587Z,43.37
2018-09-24T10:35:46.651Z,44.33
2018-09-24T10:38:19.760Z,44.22
2018-09-24T10:40:52.850Z,43.07
2018-09-24T10:43:26.121Z,42.79
2018-09-24T10:45:59.261Z,41.82
2018-09-24T10:48:32.313Z,40.76
2018-09-24T10:51:06.121Z,39.84
2018-09-24T10:53:39.214Z,40.65
2018-09-24T10:56:12.461Z,41.39
2018-09-24T10:58:45.620Z,42.01
2018-09-24T11:01:18.671Z,41.58
2018-09-24T11:03:51.764Z,41.29
2018-09-24T11:06:24.828Z,41.66
2018-09-24T11:08:57.957Z,40.72
2018-09-24T11:11:30.959Z,40.43
2018-09-24T11:14:04.094Z,41.71
2018-09-24T11:16:38.353Z,42.67
2018-09-24T11:19:11.561Z,42.35
2018-09-24T11:21:44.549Z,41.64
2018-09-24T11:24:17.523Z,40.54
2018-09-24T11:26:50.574Z,40.91
2018-09-24T11:29:23.841Z,41.71
2018-09-24T11:31:56.941Z,42.22
2018-09-24T11:34:30.096Z,42.52
2018-09-24T11:37:03.284Z,43.28
2018-09-24T11:39:36.439Z,43.29
2018-09-24T11:42:09.463Z,42.89
2018-09-24T11:44:42.495Z,42.04
2018-09-24T11:47:15.360Z,41.17
2018-09-24T11:49:48.482Z,41.00
2018-09-24T11:52:21.467Z,41.78
2018-09-24T11:54:54.554Z,42.37
2018-09-24T11:57:27.484Z,42.67
2018-09-24T12:00:00.455Z,42.59
2018-09-24T12:02:33.366Z,42.34
2018-09-24T12:05:06.428Z,42.34
2018-09-24T12:07:39.515Z,41.88
2018-09-24T12:10:12.684Z,39.65
2018-09-24T12:12:45.830Z,39.84
2018-09-24T12:15:18.789Z,40.94
2018-09-24T12:17:51.860Z,41.66
2018-09-24T12:20:24.845Z,41.72
2018-09-24T12:22:58.046Z,39.92
2018-09-24T12:25:31.059Z,38.49
2018-09-24T12:28:04.207Z,39.34
2018-09-24T12:30:37.147Z,39.44
2018-09-24T12:33:10.765Z,39.78
2018-09-24T12:35:43.719Z,40.93
2018-09-24T12:38:16.892Z,40.89
2018-09-24T12:40:49.897Z,40.72
2018-09-24T12:43:23.179Z,40.59
2018-09-24T12:45:56.416Z,39.54
2018-09-24T12:48:29.508Z,39.94
2018-09-24T12:51:02.672Z,40.06
2018-09-24T12:53:35.719Z,39.89
2018-09-24T12:56:08.591Z,40.26
2018-09-24T12:58:41.732Z,40.26
2018-09-24T13:01:14.784Z,40.21
2018-09-24T13:03:47.832Z,40.58
2018-09-24T13:06:20.731Z,41.01
2018-09-24T13:08:53.824Z,40.37
2018-09-24T13:11:26.914Z,40.51
2018-09-24T13:14:00.066Z,40.30
2018-09-24T13:16:33.444Z,39.06
2018-09-24T13:19:06.575Z,38.79
2018-09-24T13:21:39.717Z,38.29
2018-09-24T13:24:12.837Z,38.24
2018-09-24T13:26:45.972Z,37.85
2018-09-24T13:29:19.193Z,38.00
2018-09-24T13:31:52.073Z,37.52
2018-09-24T13:34:25.252Z,37.62
2018-09-24T13:36:58.467Z,37.64
2018-09-24T13:39:31.471Z,38.31
2018-09-24T13:42:04.460Z,37.81
2018-09-24T13:44:37.424Z,36.66
2018-09-24T13:47:10.414Z,36.92
2018-09-24T13:49:43.591Z,37.56
2018-09-24T13:52:16.726Z,36.67
2018-09-24T13:54:49.809Z,36.73
2018-09-24T13:57:22.881Z,36.60
2018-09-24T13:59:55.945Z,36.75
2018-09-24T14:02:29.019Z,37.24
2018-09-24T14:05:02.230Z,37.74
2018-09-24T14:07:35.412Z,37.75
2018-09-24T14:10:08.418Z,37.02
2018-09-24T14:12:41.391Z,35.96
2018-09-24T14:15:14.367Z,35.52
2018-09-24T14:17:47.311Z,37.07
2018-09-24T14:20:20.603Z,37.56
2018-09-24T14:22:53.945Z,38.37
2018-09-24T14:25:27.291Z,37.93
2018-09-24T14:28:00.383Z,37.07
2018-09-24T14:30:33.592Z,36.31
2018-09-24T14:33:06.616Z,36.90
2018-09-24T14:35:39.763Z,36.71
2018-09-24T14:38:12.945Z,36.29
2018-09-24T14:40:45.971Z,35.86
2018-09-24T14:43:19.052Z,36.11
2018-09-24T14:45:52.219Z,37.06
2018-09-24T14:48:25.365Z,36.43
2018-09-24T14:50:58.535Z,35.33
2018-09-24T14:53:31.485Z,34.77
2018-09-24T14:56:04.513Z,34.43
2018-09-24T14:58:37.723Z,35.41
2018-09-24T15:01:10.950Z,35.25
2018-09-24T15:03:44.053Z,35.11
2018-09-24T15:06:17.105Z,35.42
2018-09-24T15:08:50.243Z,35.73
2018-09-24T15:11:23.303Z,36.03
2018-09-24T15:13:56.444Z,36.91
2018-09-24T15:16:29.549Z,36.20
2018-09-24T15:19:02.685Z,35.64
2018-09-24T15:21:35.822Z,35.65
2018-09-24T15:24:08.645Z,36.15
2018-09-24T15:26:41.696Z,36.41
2018-09-24T15:29:14.888Z,36.24
2018-09-24T15:31:48.032Z,35.80
2018-09-24T15:34:22.097Z,35.67
2018-09-24T15:36:55.089Z,36.02
2018-09-24T15:39:28.060Z,36.02
2018-09-24T15:42:01.143Z,35.80
2018-09-24T15:44:34.103Z,36.02
2018-09-24T15:47:07.216Z,36.73
2018-09-24T15:49:40.217Z,36.85
2018-09-24T15:52:13.299Z,37.42
2018-09-24T15:54:46.336Z,37.27
2018-09-24T15:57:19.364Z,36.65
2018-09-24T15:59:52.526Z,36.79
2018-09-24T16:02:25.617Z,36.58
2018-09-24T16:04:58.624Z,37.11
2018-09-24T16:07:31.723Z,36.24
2018-09-24T16:10:04.998Z,36.53
2018-09-24T16:12:38.080Z,36.66
2018-09-24T16:15:11.143Z,36.44
2018-09-24T16:17:44.239Z,36.51
2018-09-24T16:20:17.437Z,36.32
2018-09-24T16:22:50.399Z,36.75
2018-09-24T16:25:23.359Z,37.09
2018-09-24T16:27:56.488Z,36.65
2018-09-24T16:30:29.475Z,37.07
2018-09-24T16:33:02.674Z,37.53
2018-09-24T16:35:35.689Z,37.42
2018-09-24T16:38:08.781Z,37.78
2018-09-24T16:40:41.917Z,37.87
2018-09-24T16:43:14.922Z,38.48
2018-09-24T16:45:48.116Z,38.82
2018-09-24T16:48:21.091Z,38.64
2018-09-24T16:50:54.315Z,39.16
2018-09-24T16:53:27.389Z,39.06
2018-09-24T16:56:00.599Z,39.25
2018-09-24T16:58:33.800Z,40.12
2018-09-24T17:01:06.859Z,40.01
2018-09-24T17:03:39.962Z,40.37
2018-09-24T17:06:13.062Z,39.86
2018-09-24T17:08:46.662Z,40.29
2018-09-24T17:11:19.788Z,40.60
2018-09-24T17:13:52.809Z,40.54
2018-09-24T17:16:25.938Z,40.84
2018-09-24T17:18:58.974Z,41.45
2018-09-24T17:21:32.034Z,41.29
2018-09-24T17:24:05.746Z,41.88
2018-09-24T17:26:38.823Z,41.56
2018-09-24T17:29:11.869Z,42.02
2018-09-24T17:31:45.315Z,42.19
2018-09-24T17:34:18.458Z,41.67
2018-09-24T17:36:51.596Z,41.44
2018-09-24T17:39:24.695Z,41.65
2018-09-24T17:41:57.673Z,42.18
2018-09-24T17:44:30.797Z,42.26
2018-09-24T17:47:03.668Z,42.97
2018-09-24T17:49:36.781Z,43.77
2018-09-24T17:52:09.863Z,43.90
2018-09-24T17:54:42.941Z,43.54
2018-09-24T17:57:16.090Z,43.65
2018-09-24T17:59:49.145Z,43.65
2018-09-24T18:02:22.315Z,43.97
2018-09-24T18:04:55.392Z,44.22
2018-09-24T18:07:28.442Z,44.45
2018-09-24T18:10:01.490Z,44.89
2018-09-24T18:12:34.568Z,44.86
2018-09-24T18:15:07.609Z,44.16
2018-09-24T18:17:40.855Z,43.69
2018-09-24T18:20:13.918Z,43.73
2018-09-24T18:22:47.076Z,44.31
2018-09-24T18:25:20.174Z,44.15
2018-09-24T18:27:53.340Z,44.52
2018-09-24T18:30:26.363Z,44.68
2018-09-24T18:32:59.489Z,44.66
2018-09-24T18:35:32.611Z,45.32
2018-09-24T18:38:05.738Z,44.88
2018-09-24T18:40:38.916Z,44.54
2018-09-24T18:43:12.065Z,44.48
2018-09-24T18:45:45.189Z,44.79
2018-09-24T18:48:18.301Z,44.52
2018-09-24T18:50:51.458Z,43.98
2018-09-24T18:53:24.504Z,44.64
2018-09-24T18:55:57.478Z,43.90
2018-09-24T18:58:30.614Z,43.62
2018-09-24T19:01:03.840Z,44.24
2018-09-24T19:03:36.895Z,44.35
2018-09-24T19:06:10.015Z,44.12
2018-09-24T19:08:43.219Z,43.69
2018-09-24T19:11:16.393Z,44.05
2018-09-24T19:13:49.354Z,43.43
2018-09-24T19:16:22.397Z,43.03
2018-09-24T19:18:55.477Z,42.97
2018-09-24T19:21:28.547Z,43.08
2018-09-24T19:24:01.709Z,43.24
2018-09-24T19:26:34.842Z,44.44
2018-09-24T19:29:07.819Z,44.30
2018-09-24T19:31:41.004Z,43.91
2018-09-24T19:34:13.861Z,43.96
2018-09-24T19:36:47.061Z,43.34
2018-09-24T19:39:20.126Z,43.53
2018-09-24T19:41:53.218Z,43.38
2018-09-24T19:44:26.334Z,43.28
2018-09-24T19:46:59.406Z,43.56
2018-09-24T19:49:32.803Z,43.89
2018-09-24T19:52:05.919Z,44.29
2018-09-24T19:54:39.695Z,44.94
2018-09-24T19:57:12.696Z,44.86
2018-09-24T19:59:45.786Z,45.35
2018-09-24T20:02:18.844Z,45.32
2018-09-24T20:04:51.936Z,45.35
2018-09-24T20:07:24.893Z,45.28
2018-09-24T20:09:57.985Z,44.89
2018-09-24T20:12:31.109Z,45.23
2018-09-24T20:15:04.767Z,44.99
2018-09-24T20:17:37.777Z,44.95
2018-09-24T20:20:11.064Z,44.45
2018-09-24T20:22:43.981Z,45.02
2018-09-24T20:25:17.035Z,45.42
2018-09-24T20:27:50.110Z,45.59
2018-09-24T20:30:23.229Z,45.30
2018-09-24T20:32:56.255Z,45.41
2018-09-24T20:35:29.233Z,45.33
2018-09-24T20:38:02.330Z,44.48
2018-09-24T20:40:35.459Z,44.80
2018-09-24T20:43:08.540Z,45.47
2018-09-24T20:45:41.684Z,44.97
2018-09-24T20:48:14.896Z,44.33
2018-09-24T20:50:48.152Z,44.56
2018-09-24T20:53:21.661Z,45.03
2018-09-24T20:55:54.687Z,45.20
2018-09-24T20:58:27.911Z,44.93
2018-09-24T21:01:01.156Z,44.67
2018-09-24T21:03:34.330Z,44.87
2018-09-24T21:06:07.402Z,45.08
2018-09-24T21:08:40.523Z,45.17
2018-09-24T21:11:13.631Z,45.68
2018-09-24T21:13:46.600Z,45.45
2018-09-24T21:16:19.690Z,45.42
2018-09-24T21:18:52.628Z,45.20
2018-09-24T21:21:25.613Z,44.65
2018-09-24T21:23:58.673Z,44.69
2018-09-24T21:26:31.793Z,45.13
2018-09-24T21:29:04.846Z,45.48
2018-09-24T21:31:37.919Z,45.32
2018-09-24T21:34:11.058Z,45.33
2018-09-24T21:36:44.462Z,44.94
2018-09-24T21:39:17.529Z,44.99
2018-09-24T21:41:50.741Z,45.05
2018-09-24T21:44:23.787Z,45.22
2018-09-24T21:46:57.476Z,45.03
2018-09-24T21:49:30.343Z,44.90
2018-09-24T21:52:03.501Z,44.49
2018-09-24T21:54:36.423Z,44.53
2018-09-24T21:57:09.452Z,44.76
2018-09-24T21:59:42.545Z,44.83
2018-09-24T22:02:15.620Z,44.85
2018-09-24T22:04:48.694Z,44.62
2018-09-24T22:07:21.777Z,44.62
2018-09-24T22:09:54.876Z,44.64
2018-09-24T22:12:27.980Z,44.87
2018-09-24T22:15:01.079Z,44.68
2018-09-24T22:17:34.210Z,45.05
2018-09-24T22:20:07.303Z,45.15
2018-09-24T22:22:40.423Z,45.13
2018-09-24T22:25:13.537Z,44.76
2018-09-24T22:27:46.670Z,44.91
2018-09-24T22:30:19.813Z,44.89
2018-09-24T22:32:52.916Z,44.21
2018-09-24T22:35:25.976Z,44.67
2018-09-24T22:37:59.101Z,44.79
2018-09-24T22:40:32.168Z,44.99
2018-09-24T22:43:05.508Z,44.80
2018-09-24T22:45:38.436Z,45.00
2018-09-24T22:48:11.374Z,45.26
2018-09-24T22:50:44.437Z,45.11
2018-09-24T22:53:17.615Z,45.17
2018-09-24T22:55:50.567Z,44.78
2018-09-24T22:58:23.735Z,45.17
2018-09-24T23:00:56.932Z,45.04
2018-09-24T23:03:30.016Z,45.02
2018-09-24T23:06:03.139Z,45.37
2018-09-24T23:08:36.232Z,45.68
2018-09-24T23:11:09.336Z,45.25
2018-09-24T23:13:42.420Z,44.99
2018-09-24T23:16:15.551Z,44.93
2018-09-24T23:18:48.402Z,45.23
2018-09-24T23:21:21.490Z,45.12
2018-09-24T23:23:54.746Z,45.21
2018-09-24T23:26:27.773Z,45.35
2018-09-24T23:29:01.055Z,45.53
2018-09-24T23:31:34.133Z,45.88
2018-09-24T23:34:07.176Z,45.44
2018-09-24T23:36:40.162Z,45.88
2018-09-24T23:39:13.201Z,46.07
2018-09-24T23:41:46.187Z,45.75
2018-09-24T23:44:19.254Z,45.57
2018-09-24T23:46:52.372Z,45.84
2018-09-24T23:49:25.473Z,45.99
2018-09-24T23:51:58.591Z,46.01
2018-09-24T23:54:31.851Z,46.03
2018-09-24T23:57:04.922Z,46.24
2018-09-24T23:59:38.117Z,46.13
